• Join FlightAware (Why Join?)
  • Login
  • US Flag GB Flag 
11:12 EST


 

Airport Tracker/Info


-or-


 

Live Flight TrackerFlight Track Log ✈ N36866 ✈ 19-Mar-2012 ✈ KONT - KWVI

Flight Track Log - Related Links

Times and Time Zones

All times are in EDT time to prevent confusion due to time zone crossing. See the N36866 flight status page for this flight to view local times or setup timezone preferences in your user account.

Time Position Orientation Groundspeed Altitude Reporting Facility
EDT Latitude Longitude Course Direction KTS MPH feet Rate Location/Type
13:15 34.0500 -117.6333 293° West 193 222 2,400  Level Southern California TRACON
13:17 34.1175 -117.8275 313° West 261 300 8,600 3,120 Climbing Los Angeles Center
13:18 34.1606 -117.8836 305° West 261 300 13,000 3,300 Climbing Los Angeles Center
13:19 34.2053 -117.9597 307° West 265 305 15,300 2,400 Climbing Los Angeles Center
13:20 34.2542 -118.0389 306° West 278 320 17,800 2,520 Climbing Los Angeles Center
13:21 34.3031 -118.1203 309° West 291 335 20,400 2,520 Climbing Los Angeles Center
13:22 34.3497 -118.1894 310° West 286 329 22,900 1,680 Climbing Los Angeles Center
13:23 34.4006 -118.2636 308° West 286 329 23,800 1,500 Climbing Los Angeles Center
13:24 34.4514 -118.3431 312° West 281 323 25,900 1,560 Climbing Los Angeles Center
13:25 34.5003 -118.4100 309° West 275 316 27,000 540 Climbing Los Angeles Center
13:26 34.5511 -118.4869 309° West 283 326 27,000 240 Level Los Angeles Center
13:27 34.6036 -118.5667 310° West 293 337 27,500 1,020 Climbing Los Angeles Center
13:28 34.6564 -118.6439 309° West 299 344 29,100 1,200 Climbing Los Angeles Center
13:29 34.7069 -118.7189 307° West 299 344 30,000 420 Climbing Los Angeles Center
13:30 34.7572 -118.8014 309° West 299 344 30,000  Level Los Angeles Center
13:31 34.8078 -118.8764 328° Northwest 306 352 30,000  Level Los Angeles Center
13:32 34.8836 -118.9344 329° Northwest 306 352 30,000  Level Los Angeles Center
13:33 34.9678 -118.9956 326° Northwest 317 365 30,000  Level Los Angeles Center
13:34 35.0436 -119.0592 327° Northwest 322 371 30,000  Level Los Angeles Center
13:35 35.1214 -119.1203 325° Northwest 327 376 30,000  Level Los Angeles Center
13:36 35.1969 -119.1842 326° Northwest 327 376 30,000  Level Los Angeles Center
13:37 35.2747 -119.2481 326° Northwest 327 376 30,000  Level Los Angeles Center
13:38 35.3503 -119.3097 325° Northwest 327 376 30,000  Level Los Angeles Center
13:39 35.4258 -119.3736 301° West 327 376 30,000  Level Los Angeles Center
13:40 35.4753 -119.4753 293° West 327 376 30,000  Level Los Angeles Center
13:43 35.5597 -119.7231 295° West 347 399 30,000  Level Oakland Center
13:44 35.6003 -119.8322 292° West 360 414 30,000  Level Oakland Center
13:45 35.6369 -119.9467 304° West 360 414 30,000  Level Oakland Center
13:46 35.6919 -120.0456 308° West 354 407 30,000  Level Oakland Center
13:47 35.7511 -120.1394 308° West 349 402 30,000 -120 Level Oakland Center
13:48 35.8100 -120.2336 308° West 349 402 29,800 -900 Descending Oakland Center
13:49 35.8692 -120.3278 308° West 349 402 28,300 -960 Descending Oakland Center
13:50 35.9281 -120.4222 309° West 349 402 27,900 -1,080 Descending Oakland Center
13:51 35.9889 -120.5167 308° West 349 402 26,200 -1,860 Descending Oakland Center
13:52 36.0497 -120.6139 308° West 361 415 24,200 -2,040 Descending Oakland Center
13:53 36.1083 -120.7064 308° West 356 410 22,200 -2,040 Descending Oakland Center
13:54 36.1628 -120.7936 307° West 341 392 20,200 -2,040 Descending Oakland Center
13:55 36.2150 -120.8808 308° West 330 380 18,200 -1,920 Descending Oakland Center
13:56 36.2692 -120.9658 308° West 325 374 16,400 -1,980 Descending Oakland Center
13:57 36.3236 -121.0533 308° West 320 368 14,300 -2,040 Descending Oakland Center
13:58 36.3778 -121.1386 307° West 320 368 12,400 -1,980 Descending Oakland Center
13:59 36.4233 -121.2136 307° West 301 346 10,400 -1,260 Descending Oakland Center
14:00 36.4669 -121.2861 308° West 284 327 9,900 -900 Descending Oakland Center
14:01 36.5128 -121.3586 306° West 268 308 8,700 -1,140 Descending Oakland Center
14:02 36.5542 -121.4286 307° West 263 303 7,700 -1,020 Descending Oakland Center
14:03 36.5956 -121.4961 307° West 258 297 6,700 -900 Descending Oakland Center
14:04 36.6369 -121.5636 311° West 253 291 5,900 -900 Descending Oakland Center
14:05 36.6783 -121.6236 328° Northwest 241 277 5,000 -480 Descending Oakland Center
14:06 36.7333 -121.6667 338° Northwest 239 275 5,000  Level Northern Cal TRACON
14:07 36.8000 -121.7000 349° North 254 292 5,000 -420 Level Northern Cal TRACON
14:08 36.8667 -121.7167 360° North 215 247 4,200 -1,140 Descending Northern Cal TRACON
14:09 36.9167 -121.7167 321° Northwest 170 196 2,800 -1,440 Descending Northern Cal TRACON
14:10 36.9500 -121.7500 270° West 145 167 1,400 -1,200 Descending Northern Cal TRACON
14:11 36.9500 -121.7833 270° West 139 160 500 -900 Descending Northern Cal TRACON